sensor_id;sensor_type;location;lat;lon;timestamp;P1;durP1;ratioP1;P2;durP2;ratioP2
26820;SDS011;37186;51.394;5.454;2023-04-01T00:02:14;3.77;;;3.67;;
26820;SDS011;37186;51.394;5.454;2023-04-01T00:05:15;3.77;;;3.67;;
26820;SDS011;37186;51.394;5.454;2023-04-01T00:08:16;3.60;;;3.50;;
26820;SDS011;37186;51.394;5.454;2023-04-01T00:11:17;3.90;;;3.80;;
26820;SDS011;37186;51.394;5.454;2023-04-01T00:14:18;3.90;;;3.80;;
26820;SDS011;37186;51.394;5.454;2023-04-01T00:17:19;3.80;;;3.70;;
26820;SDS011;37186;51.394;5.454;2023-04-01T00:20:20;3.63;;;3.53;;
26820;SDS011;37186;51.394;5.454;2023-04-01T00:23:21;3.57;;;3.47;;
26820;SDS011;37186;51.394;5.454;2023-04-01T00:26:22;3.97;;;3.87;;
26820;SDS011;37186;51.394;5.454;2023-04-01T00:29:22;4.00;;;3.90;;
26820;SDS011;37186;51.394;5.454;2023-04-01T00:32:24;3.70;;;3.60;;
26820;SDS011;37186;51.394;5.454;2023-04-01T00:35:26;3.50;;;3.40;;
26820;SDS011;37186;51.394;5.454;2023-04-01T00:38:26;3.50;;;3.40;;
26820;SDS011;37186;51.394;5.454;2023-04-01T00:41:27;3.50;;;3.40;;
26820;SDS011;37186;51.394;5.454;2023-04-01T00:44:29;3.60;;;3.50;;
26820;SDS011;37186;51.394;5.454;2023-04-01T00:47:31;3.43;;;3.33;;
26820;SDS011;37186;51.394;5.454;2023-04-01T00:50:31;3.60;;;3.50;;
26820;SDS011;37186;51.394;5.454;2023-04-01T00:53:36;3.40;;;3.30;;
26820;SDS011;37186;51.394;5.454;2023-04-01T00:56:43;3.40;;;3.30;;
26820;SDS011;37186;51.394;5.454;2023-04-01T00:59:50;3.40;;;3.30;;
26820;SDS011;37186;51.394;5.454;2023-04-01T01:02:53;3.50;;;3.40;;
26820;SDS011;37186;51.394;5.454;2023-04-01T01:12:40;3.40;;;3.30;;
26820;SDS011;37186;51.394;5.454;2023-04-01T01:15:59;3.70;;;3.60;;
26820;SDS011;37186;51.394;5.454;2023-04-01T01:22:33;3.47;;;3.37;;
26820;SDS011;37186;51.394;5.454;2023-04-01T01:35:16;3.77;;;3.67;;
26820;SDS011;37186;51.394;5.454;2023-04-01T01:38:31;3.87;;;3.77;;
26820;SDS011;37186;51.394;5.454;2023-04-01T01:41:34;3.90;;;3.80;;
26820;SDS011;37186;51.394;5.454;2023-04-01T01:44:36;3.90;;;3.80;;
26820;SDS011;37186;51.394;5.454;2023-04-01T01:47:39;3.40;;;3.30;;
26820;SDS011;37186;51.394;5.454;2023-04-01T01:50:41;4.00;;;3.90;;
26820;SDS011;37186;51.394;5.454;2023-04-01T01:53:44;3.80;;;3.70;;
26820;SDS011;37186;51.394;5.454;2023-04-01T01:56:48;3.90;;;3.80;;
26820;SDS011;37186;51.394;5.454;2023-04-01T01:59:51;3.80;;;3.70;;
26820;SDS011;37186;51.394;5.454;2023-04-01T02:02:55;3.70;;;3.60;;
26820;SDS011;37186;51.394;5.454;2023-04-01T02:05:59;3.70;;;3.60;;
26820;SDS011;37186;51.394;5.454;2023-04-01T02:09:02;3.67;;;3.57;;
26820;SDS011;37186;51.394;5.454;2023-04-01T02:12:07;3.70;;;3.60;;
26820;SDS011;37186;51.394;5.454;2023-04-01T02:15:10;3.73;;;3.63;;
26820;SDS011;37186;51.394;5.454;2023-04-01T02:18:14;3.60;;;3.50;;
26820;SDS011;37186;51.394;5.454;2023-04-01T02:21:16;3.63;;;3.53;;
26820;SDS011;37186;51.394;5.454;2023-04-01T02:24:19;3.70;;;3.60;;
26820;SDS011;37186;51.394;5.454;2023-04-01T02:27:22;3.20;;;3.10;;
26820;SDS011;37186;51.394;5.454;2023-04-01T02:30:24;3.60;;;3.50;;
26820;SDS011;37186;51.394;5.454;2023-04-01T02:33:27;3.50;;;3.40;;
26820;SDS011;37186;51.394;5.454;2023-04-01T02:36:28;3.70;;;3.60;;
26820;SDS011;37186;51.394;5.454;2023-04-01T02:39:29;3.80;;;3.70;;
26820;SDS011;37186;51.394;5.454;2023-04-01T02:42:30;3.73;;;3.63;;
26820;SDS011;37186;51.394;5.454;2023-04-01T02:45:31;3.60;;;3.50;;
26820;SDS011;37186;51.394;5.454;2023-04-01T02:48:31;3.50;;;3.40;;
26820;SDS011;37186;51.394;5.454;2023-04-01T02:51:32;3.40;;;3.30;;
26820;SDS011;37186;51.394;5.454;2023-04-01T02:54:33;3.53;;;3.43;;
26820;SDS011;37186;51.394;5.454;2023-04-01T02:57:33;3.40;;;3.30;;
26820;SDS011;37186;51.394;5.454;2023-04-01T03:00:34;3.53;;;3.43;;
26820;SDS011;37186;51.394;5.454;2023-04-01T03:03:35;3.63;;;3.53;;
26820;SDS011;37186;51.394;5.454;2023-04-01T03:06:35;3.80;;;3.70;;
26820;SDS011;37186;51.394;5.454;2023-04-01T03:09:36;3.63;;;3.53;;
26820;SDS011;37186;51.394;5.454;2023-04-01T03:12:37;3.50;;;3.40;;
26820;SDS011;37186;51.394;5.454;2023-04-01T03:15:38;3.50;;;3.40;;
26820;SDS011;37186;51.394;5.454;2023-04-01T03:18:38;3.60;;;3.50;;
26820;SDS011;37186;51.394;5.454;2023-04-01T03:21:39;3.80;;;3.70;;
26820;SDS011;37186;51.394;5.454;2023-04-01T03:24:39;3.63;;;3.53;;
26820;SDS011;37186;51.394;5.454;2023-04-01T03:27:40;3.70;;;3.60;;
26820;SDS011;37186;51.394;5.454;2023-04-01T03:30:41;3.80;;;3.70;;
26820;SDS011;37186;51.394;5.454;2023-04-01T03:33:42;3.50;;;3.40;;
26820;SDS011;37186;51.394;5.454;2023-04-01T03:36:42;3.67;;;3.57;;
26820;SDS011;37186;51.394;5.454;2023-04-01T03:39:43;3.77;;;3.67;;
26820;SDS011;37186;51.394;5.454;2023-04-01T03:42:43;3.63;;;3.53;;
26820;SDS011;37186;51.394;5.454;2023-04-01T03:45:45;3.77;;;3.67;;
26820;SDS011;37186;51.394;5.454;2023-04-01T03:48:49;3.80;;;3.70;;
26820;SDS011;37186;51.394;5.454;2023-04-01T03:51:50;3.63;;;3.53;;
26820;SDS011;37186;51.394;5.454;2023-04-01T03:54:50;3.67;;;3.57;;
26820;SDS011;37186;51.394;5.454;2023-04-01T03:57:51;3.80;;;3.70;;
26820;SDS011;37186;51.394;5.454;2023-04-01T04:00:51;3.90;;;3.80;;
26820;SDS011;37186;51.394;5.454;2023-04-01T04:03:52;3.70;;;3.60;;
26820;SDS011;37186;51.394;5.454;2023-04-01T04:06:53;3.90;;;3.80;;
26820;SDS011;37186;51.394;5.454;2023-04-01T04:09:54;3.93;;;3.83;;
26820;SDS011;37186;51.394;5.454;2023-04-01T04:12:55;3.80;;;3.70;;
26820;SDS011;37186;51.394;5.454;2023-04-01T04:15:55;3.80;;;3.70;;
26820;SDS011;37186;51.394;5.454;2023-04-01T04:18:56;3.83;;;3.73;;
26820;SDS011;37186;51.394;5.454;2023-04-01T04:21:57;4.13;;;4.03;;
26820;SDS011;37186;51.394;5.454;2023-04-01T04:24:59;4.33;;;4.23;;
26820;SDS011;37186;51.394;5.454;2023-04-01T04:28:00;4.20;;;4.10;;
26820;SDS011;37186;51.394;5.454;2023-04-01T04:31:00;4.17;;;4.07;;
26820;SDS011;37186;51.394;5.454;2023-04-01T04:34:01;4.10;;;4.00;;
26820;SDS011;37186;51.394;5.454;2023-04-01T04:37:02;4.77;;;4.67;;
26820;SDS011;37186;51.394;5.454;2023-04-01T04:40:02;4.40;;;4.30;;
26820;SDS011;37186;51.394;5.454;2023-04-01T04:43:03;4.10;;;4.00;;
26820;SDS011;37186;51.394;5.454;2023-04-01T04:46:08;4.33;;;4.23;;
26820;SDS011;37186;51.394;5.454;2023-04-01T04:49:09;4.50;;;4.40;;
26820;SDS011;37186;51.394;5.454;2023-04-01T04:52:10;4.20;;;4.10;;
26820;SDS011;37186;51.394;5.454;2023-04-01T04:55:11;4.37;;;4.27;;
26820;SDS011;37186;51.394;5.454;2023-04-01T04:58:11;4.40;;;4.30;;
26820;SDS011;37186;51.394;5.454;2023-04-01T05:01:13;4.20;;;4.10;;
26820;SDS011;37186;51.394;5.454;2023-04-01T05:04:15;4.00;;;3.90;;
26820;SDS011;37186;51.394;5.454;2023-04-01T05:07:15;4.00;;;3.90;;
26820;SDS011;37186;51.394;5.454;2023-04-01T05:10:16;3.90;;;3.80;;
26820;SDS011;37186;51.394;5.454;2023-04-01T05:13:17;3.83;;;3.73;;
26820;SDS011;37186;51.394;5.454;2023-04-01T05:16:18;3.83;;;3.73;;
26820;SDS011;37186;51.394;5.454;2023-04-01T05:19:20;4.13;;;4.03;;
26820;SDS011;37186;51.394;5.454;2023-04-01T05:22:20;4.10;;;4.00;;
26820;SDS011;37186;51.394;5.454;2023-04-01T05:25:21;4.27;;;4.17;;
26820;SDS011;37186;51.394;5.454;2023-04-01T05:28:21;3.97;;;3.87;;
26820;SDS011;37186;51.394;5.454;2023-04-01T05:31:22;4.03;;;3.93;;
26820;SDS011;37186;51.394;5.454;2023-04-01T05:34:23;4.23;;;4.13;;
26820;SDS011;37186;51.394;5.454;2023-04-01T05:37:24;4.37;;;4.27;;
26820;SDS011;37186;51.394;5.454;2023-04-01T05:40:25;4.30;;;4.20;;
26820;SDS011;37186;51.394;5.454;2023-04-01T05:43:25;4.63;;;4.53;;
26820;SDS011;37186;51.394;5.454;2023-04-01T05:46:26;4.40;;;4.30;;
26820;SDS011;37186;51.394;5.454;2023-04-01T05:49:26;4.57;;;4.47;;
26820;SDS011;37186;51.394;5.454;2023-04-01T05:52:27;4.83;;;4.73;;
26820;SDS011;37186;51.394;5.454;2023-04-01T05:55:27;4.77;;;4.67;;
26820;SDS011;37186;51.394;5.454;2023-04-01T05:58:28;4.63;;;4.53;;
26820;SDS011;37186;51.394;5.454;2023-04-01T06:01:28;4.93;;;4.83;;
26820;SDS011;37186;51.394;5.454;2023-04-01T06:04:32;5.03;;;4.93;;
26820;SDS011;37186;51.394;5.454;2023-04-01T06:07:37;5.00;;;4.90;;
26820;SDS011;37186;51.394;5.454;2023-04-01T06:10:53;5.27;;;5.17;;
26820;SDS011;37186;51.394;5.454;2023-04-01T06:31:03;4.97;;;4.87;;
26820;SDS011;37186;51.394;5.454;2023-04-01T06:34:32;5.57;;;5.47;;
26820;SDS011;37186;51.394;5.454;2023-04-01T06:41:42;5.20;;;5.10;;
26820;SDS011;37186;51.394;5.454;2023-04-01T06:44:34;5.13;;;5.03;;
26820;SDS011;37186;51.394;5.454;2023-04-01T06:48:10;5.20;;;5.10;;
26820;SDS011;37186;51.394;5.454;2023-04-01T06:55:00;4.70;;;4.60;;
26820;SDS011;37186;51.394;5.454;2023-04-01T06:58:18;5.87;;;5.67;;
26820;SDS011;37186;51.394;5.454;2023-04-01T07:01:26;5.13;;;5.03;;
26820;SDS011;37186;51.394;5.454;2023-04-01T07:04:43;5.07;;;4.97;;
26820;SDS011;37186;51.394;5.454;2023-04-01T07:07:50;5.30;;;5.20;;
26820;SDS011;37186;51.394;5.454;2023-04-01T07:10:58;5.47;;;5.37;;
26820;SDS011;37186;51.394;5.454;2023-04-01T07:17:28;5.20;;;5.10;;
26820;SDS011;37186;51.394;5.454;2023-04-01T07:20:32;5.17;;;5.07;;
26820;SDS011;37186;51.394;5.454;2023-04-01T07:23:38;4.80;;;4.70;;
26820;SDS011;37186;51.394;5.454;2023-04-01T07:26:42;4.63;;;4.53;;
26820;SDS011;37186;51.394;5.454;2023-04-01T07:29:43;5.03;;;4.93;;
26820;SDS011;37186;51.394;5.454;2023-04-01T07:36:14;4.57;;;4.47;;
26820;SDS011;37186;51.394;5.454;2023-04-01T07:39:34;4.30;;;4.20;;
26820;SDS011;37186;51.394;5.454;2023-04-01T07:46:43;4.30;;;4.20;;
26820;SDS011;37186;51.394;5.454;2023-04-01T07:50:32;4.40;;;4.30;;
26820;SDS011;37186;51.394;5.454;2023-04-01T07:56:55;4.33;;;4.23;;
26820;SDS011;37186;51.394;5.454;2023-04-01T08:00:18;4.20;;;4.10;;
26820;SDS011;37186;51.394;5.454;2023-04-01T08:03:33;4.90;;;4.80;;
26820;SDS011;37186;51.394;5.454;2023-04-01T08:06:53;4.90;;;4.80;;
26820;SDS011;37186;51.394;5.454;2023-04-01T08:10:20;5.00;;;4.90;;
26820;SDS011;37186;51.394;5.454;2023-04-01T08:13:46;5.30;;;5.20;;
26820;SDS011;37186;51.394;5.454;2023-04-01T08:16:54;4.90;;;4.80;;
26820;SDS011;37186;51.394;5.454;2023-04-01T08:29:40;4.53;;;4.43;;
26820;SDS011;37186;51.394;5.454;2023-04-01T08:32:56;4.87;;;4.77;;
26820;SDS011;37186;51.394;5.454;2023-04-01T08:39:28;4.87;;;4.77;;
26820;SDS011;37186;51.394;5.454;2023-04-01T08:53:27;4.93;;;4.83;;
26820;SDS011;37186;51.394;5.454;2023-04-01T08:59:57;4.37;;;4.27;;
26820;SDS011;37186;51.394;5.454;2023-04-01T09:03:43;4.50;;;4.40;;
26820;SDS011;37186;51.394;5.454;2023-04-01T09:06:52;5.20;;;5.10;;
26820;SDS011;37186;51.394;5.454;2023-04-01T09:23:54;5.30;;;5.20;;
26820;SDS011;37186;51.394;5.454;2023-04-01T09:27:25;5.23;;;5.13;;
26820;SDS011;37186;51.394;5.454;2023-04-01T09:30:31;5.73;;;5.63;;
26820;SDS011;37186;51.394;5.454;2023-04-01T09:40:55;5.20;;;5.10;;
26820;SDS011;37186;51.394;5.454;2023-04-01T09:44:14;5.13;;;5.03;;
26820;SDS011;37186;51.394;5.454;2023-04-01T10:20:34;5.10;;;5.00;;
26820;SDS011;37186;51.394;5.454;2023-04-01T10:23:59;5.03;;;4.93;;
26820;SDS011;37186;51.394;5.454;2023-04-01T10:30:27;5.23;;;5.13;;
26820;SDS011;37186;51.394;5.454;2023-04-01T10:37:15;5.03;;;4.93;;
26820;SDS011;37186;51.394;5.454;2023-04-01T11:00:45;4.93;;;4.83;;
26820;SDS011;37186;51.394;5.454;2023-04-01T11:07:35;5.00;;;4.90;;
26820;SDS011;37186;51.394;5.454;2023-04-01T11:24:29;5.07;;;4.97;;
26820;SDS011;37186;51.394;5.454;2023-04-01T11:47:41;4.83;;;4.73;;
26820;SDS011;37186;51.394;5.454;2023-04-01T11:51:03;4.87;;;4.77;;
26820;SDS011;37186;51.394;5.454;2023-04-01T12:01:23;4.70;;;4.60;;
26820;SDS011;37186;51.394;5.454;2023-04-01T12:08:09;4.77;;;4.67;;
26820;SDS011;37186;51.394;5.454;2023-04-01T12:11:17;4.67;;;4.57;;
26820;SDS011;37186;51.394;5.454;2023-04-01T12:17:55;4.73;;;4.63;;
26820;SDS011;37186;51.394;5.454;2023-04-01T12:20:57;4.47;;;4.37;;
26820;SDS011;37186;51.394;5.454;2023-04-01T12:24:31;4.73;;;4.63;;
26820;SDS011;37186;51.394;5.454;2023-04-01T12:31:09;4.63;;;4.53;;
26820;SDS011;37186;51.394;5.454;2023-04-01T12:34:49;4.87;;;4.77;;
26820;SDS011;37186;51.394;5.454;2023-04-01T12:41:45;4.67;;;4.57;;
26820;SDS011;37186;51.394;5.454;2023-04-01T12:52:00;4.43;;;4.33;;
26820;SDS011;37186;51.394;5.454;2023-04-01T13:08:27;4.70;;;4.60;;
26820;SDS011;37186;51.394;5.454;2023-04-01T13:11:42;4.90;;;4.80;;
26820;SDS011;37186;51.394;5.454;2023-04-01T13:18:43;5.23;;;5.13;;
26820;SDS011;37186;51.394;5.454;2023-04-01T13:22:03;5.00;;;4.90;;
26820;SDS011;37186;51.394;5.454;2023-04-01T13:28:39;5.23;;;5.13;;
26820;SDS011;37186;51.394;5.454;2023-04-01T13:35:08;5.50;;;5.40;;
26820;SDS011;37186;51.394;5.454;2023-04-01T13:42:12;5.03;;;4.93;;
26820;SDS011;37186;51.394;5.454;2023-04-01T13:52:05;5.60;;;5.50;;
26820;SDS011;37186;51.394;5.454;2023-04-01T13:58:45;5.23;;;5.13;;
26820;SDS011;37186;51.394;5.454;2023-04-01T14:12:11;5.20;;;5.10;;
26820;SDS011;37186;51.394;5.454;2023-04-01T14:19:00;5.57;;;5.47;;
26820;SDS011;37186;51.394;5.454;2023-04-01T14:22:29;5.40;;;5.30;;
26820;SDS011;37186;51.394;5.454;2023-04-01T14:29:26;5.97;;;5.77;;
26820;SDS011;37186;51.394;5.454;2023-04-01T14:35:44;6.80;;;6.60;;
26820;SDS011;37186;51.394;5.454;2023-04-01T14:49:30;6.70;;;6.50;;
26820;SDS011;37186;51.394;5.454;2023-04-01T14:52:42;5.47;;;5.37;;
26820;SDS011;37186;51.394;5.454;2023-04-01T14:55:57;6.47;;;6.27;;
26820;SDS011;37186;51.394;5.454;2023-04-01T14:58:58;6.20;;;6.00;;
26820;SDS011;37186;51.394;5.454;2023-04-01T15:08:16;5.70;;;5.60;;
26820;SDS011;37186;51.394;5.454;2023-04-01T15:17:55;6.20;;;6.00;;
26820;SDS011;37186;51.394;5.454;2023-04-01T15:21:10;6.07;;;5.87;;
26820;SDS011;37186;51.394;5.454;2023-04-01T15:34:15;6.03;;;5.83;;
26820;SDS011;37186;51.394;5.454;2023-04-01T15:41:03;5.17;;;5.07;;
26820;SDS011;37186;51.394;5.454;2023-04-01T15:47:36;5.30;;;5.20;;
26820;SDS011;37186;51.394;5.454;2023-04-01T15:51:02;5.17;;;5.07;;
26820;SDS011;37186;51.394;5.454;2023-04-01T16:00:57;4.93;;;4.83;;
26820;SDS011;37186;51.394;5.454;2023-04-01T16:07:55;4.83;;;4.73;;
26820;SDS011;37186;51.394;5.454;2023-04-01T16:14:24;4.53;;;4.43;;
26820;SDS011;37186;51.394;5.454;2023-04-01T16:24:55;4.83;;;4.73;;
26820;SDS011;37186;51.394;5.454;2023-04-01T16:34:35;5.40;;;5.30;;
26820;SDS011;37186;51.394;5.454;2023-04-01T16:37:43;5.37;;;5.27;;
26820;SDS011;37186;51.394;5.454;2023-04-01T16:44:23;6.03;;;5.83;;
26820;SDS011;37186;51.394;5.454;2023-04-01T16:47:32;5.73;;;5.60;;
26820;SDS011;37186;51.394;5.454;2023-04-01T17:00:49;5.53;;;5.43;;
26820;SDS011;37186;51.394;5.454;2023-04-01T17:03:54;5.60;;;5.50;;
26820;SDS011;37186;51.394;5.454;2023-04-01T17:21:10;5.13;;;5.03;;
26820;SDS011;37186;51.394;5.454;2023-04-01T17:27:42;5.37;;;5.27;;
26820;SDS011;37186;51.394;5.454;2023-04-01T17:34:39;4.73;;;4.63;;
26820;SDS011;37186;51.394;5.454;2023-04-01T17:51:38;5.50;;;5.40;;
26820;SDS011;37186;51.394;5.454;2023-04-01T17:54:47;4.90;;;4.80;;
26820;SDS011;37186;51.394;5.454;2023-04-01T18:05:01;6.00;;;5.80;;
26820;SDS011;37186;51.394;5.454;2023-04-01T18:08:09;5.83;;;5.67;;
26820;SDS011;37186;51.394;5.454;2023-04-01T18:11:21;6.43;;;6.23;;
26820;SDS011;37186;51.394;5.454;2023-04-01T18:21:47;6.53;;;6.33;;
26820;SDS011;37186;51.394;5.454;2023-04-01T18:28:13;6.63;;;6.43;;
26820;SDS011;37186;51.394;5.454;2023-04-01T18:31:16;6.40;;;6.20;;
26820;SDS011;37186;51.394;5.454;2023-04-01T18:47:25;7.07;;;6.87;;
26820;SDS011;37186;51.394;5.454;2023-04-01T18:54:00;7.10;;;6.90;;
26820;SDS011;37186;51.394;5.454;2023-04-01T18:57:17;6.90;;;6.70;;
26820;SDS011;37186;51.394;5.454;2023-04-01T19:00:21;7.27;;;7.07;;
26820;SDS011;37186;51.394;5.454;2023-04-01T19:03:27;7.13;;;6.93;;
26820;SDS011;37186;51.394;5.454;2023-04-01T19:09:45;7.23;;;7.03;;
26820;SDS011;37186;51.394;5.454;2023-04-01T19:27:01;6.37;;;6.17;;
26820;SDS011;37186;51.394;5.454;2023-04-01T19:30:13;6.50;;;6.30;;
26820;SDS011;37186;51.394;5.454;2023-04-01T19:37:28;6.03;;;5.83;;
26820;SDS011;37186;51.394;5.454;2023-04-01T19:40:20;6.50;;;6.30;;
26820;SDS011;37186;51.394;5.454;2023-04-01T19:43:54;6.00;;;5.80;;
26820;SDS011;37186;51.394;5.454;2023-04-01T19:47:30;6.27;;;6.07;;
26820;SDS011;37186;51.394;5.454;2023-04-01T19:51:02;6.13;;;5.93;;
26820;SDS011;37186;51.394;5.454;2023-04-01T19:55:21;6.03;;;5.83;;
26820;SDS011;37186;51.394;5.454;2023-04-01T19:58:18;6.07;;;5.87;;
26820;SDS011;37186;51.394;5.454;2023-04-01T20:01:34;6.40;;;6.20;;
26820;SDS011;37186;51.394;5.454;2023-04-01T20:04:40;5.93;;;5.73;;
26820;SDS011;37186;51.394;5.454;2023-04-01T20:07:51;5.77;;;5.63;;
26820;SDS011;37186;51.394;5.454;2023-04-01T20:10:59;5.77;;;5.63;;
26820;SDS011;37186;51.394;5.454;2023-04-01T20:20:36;6.23;;;6.03;;
26820;SDS011;37186;51.394;5.454;2023-04-01T20:23:42;6.30;;;6.10;;
26820;SDS011;37186;51.394;5.454;2023-04-01T20:27:03;5.83;;;5.67;;
26820;SDS011;37186;51.394;5.454;2023-04-01T20:37:00;5.87;;;5.70;;
26820;SDS011;37186;51.394;5.454;2023-04-01T20:40:20;5.67;;;5.57;;
26820;SDS011;37186;51.394;5.454;2023-04-01T20:46:48;6.07;;;5.87;;
26820;SDS011;37186;51.394;5.454;2023-04-01T20:53:29;5.80;;;5.60;;
26820;SDS011;37186;51.394;5.454;2023-04-01T20:56:47;5.60;;;5.50;;
26820;SDS011;37186;51.394;5.454;2023-04-01T21:03:08;6.00;;;5.80;;
26820;SDS011;37186;51.394;5.454;2023-04-01T21:16:31;5.60;;;5.50;;
26820;SDS011;37186;51.394;5.454;2023-04-01T21:30:04;5.67;;;5.57;;
26820;SDS011;37186;51.394;5.454;2023-04-01T22:07:23;5.60;;;5.50;;
26820;SDS011;37186;51.394;5.454;2023-04-01T22:13:43;6.03;;;5.83;;
26820;SDS011;37186;51.394;5.454;2023-04-01T22:23:43;6.57;;;6.37;;
26820;SDS011;37186;51.394;5.454;2023-04-01T22:26:50;6.37;;;6.17;;
26820;SDS011;37186;51.394;5.454;2023-04-01T22:33:20;6.50;;;6.30;;
26820;SDS011;37186;51.394;5.454;2023-04-01T22:36:40;6.03;;;5.83;;
26820;SDS011;37186;51.394;5.454;2023-04-01T22:43:01;6.40;;;6.20;;
26820;SDS011;37186;51.394;5.454;2023-04-01T22:49:41;5.93;;;5.73;;
26820;SDS011;37186;51.394;5.454;2023-04-01T22:52:54;5.73;;;5.60;;
26820;SDS011;37186;51.394;5.454;2023-04-01T22:56:21;5.90;;;5.73;;
26820;SDS011;37186;51.394;5.454;2023-04-01T22:59:41;5.47;;;5.37;;
26820;SDS011;37186;51.394;5.454;2023-04-01T23:06:31;5.00;;;4.90;;
26820;SDS011;37186;51.394;5.454;2023-04-01T23:09:37;5.50;;;5.40;;
26820;SDS011;37186;51.394;5.454;2023-04-01T23:12:38;5.93;;;5.73;;
26820;SDS011;37186;51.394;5.454;2023-04-01T23:15:41;5.57;;;5.43;;
26820;SDS011;37186;51.394;5.454;2023-04-01T23:18:58;5.90;;;5.73;;
26820;SDS011;37186;51.394;5.454;2023-04-01T23:31:41;6.13;;;5.93;;
26820;SDS011;37186;51.394;5.454;2023-04-01T23:34:50;6.30;;;6.10;;
26820;SDS011;37186;51.394;5.454;2023-04-01T23:37:53;6.27;;;6.07;;
26820;SDS011;37186;51.394;5.454;2023-04-01T23:40:54;6.13;;;5.93;;
26820;SDS011;37186;51.394;5.454;2023-04-01T23:44:05;6.30;;;6.10;;
26820;SDS011;37186;51.394;5.454;2023-04-01T23:47:12;6.13;;;5.93;;
26820;SDS011;37186;51.394;5.454;2023-04-01T23:50:21;6.40;;;6.20;;
26820;SDS011;37186;51.394;5.454;2023-04-01T23:53:24;6.83;;;6.63;;
26820;SDS011;37186;51.394;5.454;2023-04-01T23:56:38;6.60;;;6.40;;
26820;SDS011;37186;51.394;5.454;2023-04-01T23:59:46;6.67;;;6.47;;
